sensor_id;sensor_type;location;lat;lon;timestamp;P1;durP1;ratioP1;P2;durP2;ratioP2
73938;SDS011;62291;47.554;8.504;2022-07-29T00:00:39;3.15;;;2.60;;
73938;SDS011;62291;47.554;8.504;2022-07-29T00:03:04;4.32;;;2.58;;
73938;SDS011;62291;47.554;8.504;2022-07-29T00:05:30;3.10;;;2.80;;
73938;SDS011;62291;47.554;8.504;2022-07-29T00:07:56;3.28;;;2.70;;
73938;SDS011;62291;47.554;8.504;2022-07-29T00:10:21;3.55;;;2.95;;
73938;SDS011;62291;47.554;8.504;2022-07-29T00:12:47;3.25;;;2.95;;
73938;SDS011;62291;47.554;8.504;2022-07-29T00:15:13;5.63;;;2.65;;
73938;SDS011;62291;47.554;8.504;2022-07-29T00:17:39;2.95;;;2.65;;
73938;SDS011;62291;47.554;8.504;2022-07-29T00:20:05;3.50;;;3.10;;
73938;SDS011;62291;47.554;8.504;2022-07-29T00:22:31;3.08;;;2.58;;
73938;SDS011;62291;47.554;8.504;2022-07-29T00:24:57;2.97;;;2.20;;
73938;SDS011;62291;47.554;8.504;2022-07-29T00:27:22;2.75;;;2.53;;
73938;SDS011;62291;47.554;8.504;2022-07-29T00:29:48;3.25;;;2.28;;
73938;SDS011;62291;47.554;8.504;2022-07-29T00:32:14;3.08;;;2.20;;
73938;SDS011;62291;47.554;8.504;2022-07-29T00:34:39;3.38;;;1.92;;
73938;SDS011;62291;47.554;8.504;2022-07-29T00:37:24;2.88;;;2.10;;
73938;SDS011;62291;47.554;8.504;2022-07-29T00:39:49;3.85;;;2.88;;
73938;SDS011;62291;47.554;8.504;2022-07-29T00:42:15;2.97;;;2.67;;
73938;SDS011;62291;47.554;8.504;2022-07-29T00:44:41;2.35;;;1.92;;
73938;SDS011;62291;47.554;8.504;2022-07-29T00:47:08;2.50;;;2.28;;
73938;SDS011;62291;47.554;8.504;2022-07-29T00:49:34;4.25;;;2.53;;
73938;SDS011;62291;47.554;8.504;2022-07-29T00:52:02;3.58;;;2.72;;
73938;SDS011;62291;47.554;8.504;2022-07-29T00:54:28;4.32;;;2.10;;
73938;SDS011;62291;47.554;8.504;2022-07-29T00:56:55;3.67;;;2.20;;
73938;SDS011;62291;47.554;8.504;2022-07-29T00:59:25;3.67;;;2.05;;
73938;SDS011;62291;47.554;8.504;2022-07-29T01:01:52;4.82;;;2.25;;
73938;SDS011;62291;47.554;8.504;2022-07-29T01:04:19;2.10;;;1.88;;
73938;SDS011;62291;47.554;8.504;2022-07-29T01:06:46;4.35;;;2.60;;
73938;SDS011;62291;47.554;8.504;2022-07-29T01:09:13;3.25;;;2.10;;
73938;SDS011;62291;47.554;8.504;2022-07-29T01:11:39;3.15;;;2.40;;
73938;SDS011;62291;47.554;8.504;2022-07-29T01:14:06;3.13;;;2.50;;
73938;SDS011;62291;47.554;8.504;2022-07-29T01:16:32;2.90;;;2.60;;
73938;SDS011;62291;47.554;8.504;2022-07-29T01:19:07;5.35;;;2.63;;
73938;SDS011;62291;47.554;8.504;2022-07-29T01:21:53;4.13;;;2.67;;
73938;SDS011;62291;47.554;8.504;2022-07-29T01:24:28;4.30;;;2.67;;
73938;SDS011;62291;47.554;8.504;2022-07-29T01:27:06;5.05;;;2.60;;
73938;SDS011;62291;47.554;8.504;2022-07-29T01:30:02;4.40;;;3.33;;
73938;SDS011;62291;47.554;8.504;2022-07-29T01:32:29;4.07;;;3.25;;
73938;SDS011;62291;47.554;8.504;2022-07-29T01:37:44;3.65;;;2.60;;
73938;SDS011;62291;47.554;8.504;2022-07-29T01:42:56;5.07;;;2.60;;
73938;SDS011;62291;47.554;8.504;2022-07-29T01:45:37;3.72;;;2.45;;
73938;SDS011;62291;47.554;8.504;2022-07-29T01:48:24;4.10;;;2.88;;
73938;SDS011;62291;47.554;8.504;2022-07-29T01:52:00;4.22;;;2.33;;
73938;SDS011;62291;47.554;8.504;2022-07-29T01:56:44;2.72;;;2.20;;
73938;SDS011;62291;47.554;8.504;2022-07-29T01:59:12;3.13;;;2.53;;
73938;SDS011;62291;47.554;8.504;2022-07-29T02:01:39;2.17;;;1.98;;
73938;SDS011;62291;47.554;8.504;2022-07-29T02:04:07;3.55;;;2.88;;
73938;SDS011;62291;47.554;8.504;2022-07-29T02:06:36;5.13;;;3.00;;
73938;SDS011;62291;47.554;8.504;2022-07-29T02:09:05;2.50;;;2.10;;
73938;SDS011;62291;47.554;8.504;2022-07-29T02:11:33;2.78;;;2.25;;
73938;SDS011;62291;47.554;8.504;2022-07-29T02:14:00;2.95;;;2.60;;
73938;SDS011;62291;47.554;8.504;2022-07-29T02:16:28;2.55;;;2.35;;
73938;SDS011;62291;47.554;8.504;2022-07-29T02:18:57;2.40;;;2.20;;
73938;SDS011;62291;47.554;8.504;2022-07-29T02:21:25;3.92;;;2.28;;
73938;SDS011;62291;47.554;8.504;2022-07-29T02:23:53;3.97;;;2.40;;
73938;SDS011;62291;47.554;8.504;2022-07-29T02:26:21;2.25;;;2.05;;
73938;SDS011;62291;47.554;8.504;2022-07-29T02:28:50;2.75;;;2.20;;
73938;SDS011;62291;47.554;8.504;2022-07-29T02:31:19;3.42;;;2.50;;
73938;SDS011;62291;47.554;8.504;2022-07-29T02:33:47;4.03;;;2.63;;
73938;SDS011;62291;47.554;8.504;2022-07-29T02:36:16;2.85;;;2.30;;
73938;SDS011;62291;47.554;8.504;2022-07-29T02:38:42;5.32;;;2.90;;
73938;SDS011;62291;47.554;8.504;2022-07-29T02:44:06;4.30;;;2.50;;
73938;SDS011;62291;47.554;8.504;2022-07-29T02:46:37;6.32;;;2.70;;
73938;SDS011;62291;47.554;8.504;2022-07-29T02:51:43;4.72;;;2.35;;
73938;SDS011;62291;47.554;8.504;2022-07-29T02:54:59;4.40;;;2.65;;
73938;SDS011;62291;47.554;8.504;2022-07-29T03:00:07;4.07;;;2.40;;
73938;SDS011;62291;47.554;8.504;2022-07-29T03:02:39;5.50;;;2.60;;
73938;SDS011;62291;47.554;8.504;2022-07-29T03:05:08;2.80;;;2.47;;
73938;SDS011;62291;47.554;8.504;2022-07-29T03:07:36;5.18;;;2.75;;
73938;SDS011;62291;47.554;8.504;2022-07-29T03:10:06;4.38;;;2.80;;
73938;SDS011;62291;47.554;8.504;2022-07-29T03:12:33;2.80;;;2.60;;
73938;SDS011;62291;47.554;8.504;2022-07-29T03:15:00;3.17;;;2.38;;
73938;SDS011;62291;47.554;8.504;2022-07-29T03:17:27;4.13;;;2.60;;
73938;SDS011;62291;47.554;8.504;2022-07-29T03:19:53;4.43;;;2.50;;
73938;SDS011;62291;47.554;8.504;2022-07-29T03:22:19;5.72;;;2.97;;
73938;SDS011;62291;47.554;8.504;2022-07-29T03:24:45;3.95;;;2.70;;
73938;SDS011;62291;47.554;8.504;2022-07-29T03:27:11;3.47;;;2.60;;
73938;SDS011;62291;47.554;8.504;2022-07-29T03:29:36;2.60;;;2.30;;
73938;SDS011;62291;47.554;8.504;2022-07-29T03:32:03;2.70;;;2.40;;
73938;SDS011;62291;47.554;8.504;2022-07-29T03:34:30;2.40;;;2.20;;
73938;SDS011;62291;47.554;8.504;2022-07-29T03:36:55;3.35;;;2.10;;
73938;SDS011;62291;47.554;8.504;2022-07-29T03:39:21;2.95;;;1.98;;
73938;SDS011;62291;47.554;8.504;2022-07-29T03:41:52;7.70;;;2.33;;
73938;SDS011;62291;47.554;8.504;2022-07-29T03:44:20;5.22;;;2.67;;
73938;SDS011;62291;47.554;8.504;2022-07-29T03:46:48;3.55;;;2.22;;
73938;SDS011;62291;47.554;8.504;2022-07-29T03:49:16;4.95;;;2.50;;
73938;SDS011;62291;47.554;8.504;2022-07-29T03:51:43;4.15;;;2.40;;
73938;SDS011;62291;47.554;8.504;2022-07-29T03:54:09;3.35;;;2.40;;
73938;SDS011;62291;47.554;8.504;2022-07-29T03:56:43;2.75;;;2.40;;
73938;SDS011;62291;47.554;8.504;2022-07-29T03:59:12;2.88;;;2.60;;
73938;SDS011;62291;47.554;8.504;2022-07-29T04:01:40;7.15;;;2.45;;
73938;SDS011;62291;47.554;8.504;2022-07-29T04:04:07;3.53;;;2.30;;
73938;SDS011;62291;47.554;8.504;2022-07-29T04:06:42;3.25;;;2.13;;
73938;SDS011;62291;47.554;8.504;2022-07-29T04:09:12;2.97;;;2.28;;
73938;SDS011;62291;47.554;8.504;2022-07-29T04:11:38;3.80;;;2.53;;
73938;SDS011;62291;47.554;8.504;2022-07-29T04:14:04;3.47;;;2.40;;
73938;SDS011;62291;47.554;8.504;2022-07-29T04:16:30;2.90;;;2.50;;
73938;SDS011;62291;47.554;8.504;2022-07-29T04:18:56;5.75;;;2.60;;
73938;SDS011;62291;47.554;8.504;2022-07-29T04:21:22;7.53;;;2.55;;
73938;SDS011;62291;47.554;8.504;2022-07-29T04:23:48;4.15;;;2.92;;
73938;SDS011;62291;47.554;8.504;2022-07-29T04:26:17;3.53;;;3.22;;
73938;SDS011;62291;47.554;8.504;2022-07-29T04:28:43;3.85;;;3.00;;
73938;SDS011;62291;47.554;8.504;2022-07-29T04:31:09;3.17;;;2.88;;
73938;SDS011;62291;47.554;8.504;2022-07-29T04:33:35;4.15;;;2.72;;
73938;SDS011;62291;47.554;8.504;2022-07-29T04:36:01;4.28;;;2.90;;
73938;SDS011;62291;47.554;8.504;2022-07-29T04:38:26;3.58;;;2.85;;
73938;SDS011;62291;47.554;8.504;2022-07-29T04:40:52;3.88;;;2.50;;
73938;SDS011;62291;47.554;8.504;2022-07-29T04:43:18;3.40;;;2.80;;
73938;SDS011;62291;47.554;8.504;2022-07-29T04:45:43;3.05;;;2.75;;
73938;SDS011;62291;47.554;8.504;2022-07-29T04:48:09;3.85;;;2.90;;
73938;SDS011;62291;47.554;8.504;2022-07-29T04:50:37;3.15;;;2.85;;
73938;SDS011;62291;47.554;8.504;2022-07-29T04:53:03;3.25;;;2.80;;
73938;SDS011;62291;47.554;8.504;2022-07-29T04:55:29;3.42;;;2.75;;
73938;SDS011;62291;47.554;8.504;2022-07-29T04:57:54;5.15;;;3.50;;
73938;SDS011;62291;47.554;8.504;2022-07-29T05:00:20;3.75;;;3.25;;
73938;SDS011;62291;47.554;8.504;2022-07-29T05:02:48;3.50;;;3.20;;
73938;SDS011;62291;47.554;8.504;2022-07-29T05:05:14;3.13;;;2.33;;
73938;SDS011;62291;47.554;8.504;2022-07-29T05:07:39;3.38;;;2.45;;
73938;SDS011;62291;47.554;8.504;2022-07-29T05:10:05;4.30;;;2.80;;
73938;SDS011;62291;47.554;8.504;2022-07-29T05:12:31;5.85;;;2.85;;
73938;SDS011;62291;47.554;8.504;2022-07-29T05:14:57;3.67;;;3.10;;
73938;SDS011;62291;47.554;8.504;2022-07-29T05:17:22;6.53;;;2.70;;
73938;SDS011;62291;47.554;8.504;2022-07-29T05:19:48;4.53;;;2.55;;
73938;SDS011;62291;47.554;8.504;2022-07-29T05:22:16;3.45;;;2.83;;
73938;SDS011;62291;47.554;8.504;2022-07-29T05:24:43;3.88;;;3.00;;
73938;SDS011;62291;47.554;8.504;2022-07-29T05:27:08;3.92;;;2.70;;
73938;SDS011;62291;47.554;8.504;2022-07-29T05:29:34;3.50;;;3.00;;
73938;SDS011;62291;47.554;8.504;2022-07-29T05:32:00;3.60;;;3.30;;
73938;SDS011;62291;47.554;8.504;2022-07-29T05:34:26;4.65;;;3.10;;
73938;SDS011;62291;47.554;8.504;2022-07-29T05:36:52;3.22;;;2.92;;
73938;SDS011;62291;47.554;8.504;2022-07-29T05:39:18;3.60;;;3.00;;
73938;SDS011;62291;47.554;8.504;2022-07-29T05:41:43;3.20;;;2.85;;
73938;SDS011;62291;47.554;8.504;2022-07-29T05:44:09;9.00;;;2.80;;
73938;SDS011;62291;47.554;8.504;2022-07-29T05:46:36;3.17;;;2.88;;
73938;SDS011;62291;47.554;8.504;2022-07-29T05:49:02;4.70;;;2.80;;
73938;SDS011;62291;47.554;8.504;2022-07-29T05:51:27;4.32;;;3.15;;
73938;SDS011;62291;47.554;8.504;2022-07-29T05:53:54;7.05;;;3.22;;
73938;SDS011;62291;47.554;8.504;2022-07-29T05:56:20;3.35;;;2.80;;
73938;SDS011;62291;47.554;8.504;2022-07-29T05:58:46;3.55;;;2.72;;
73938;SDS011;62291;47.554;8.504;2022-07-29T06:01:11;4.68;;;2.67;;
73938;SDS011;62291;47.554;8.504;2022-07-29T06:03:37;3.15;;;2.50;;
73938;SDS011;62291;47.554;8.504;2022-07-29T06:06:03;4.30;;;2.70;;
73938;SDS011;62291;47.554;8.504;2022-07-29T06:08:30;3.65;;;2.47;;
73938;SDS011;62291;47.554;8.504;2022-07-29T06:10:58;5.10;;;3.00;;
73938;SDS011;62291;47.554;8.504;2022-07-29T06:13:24;4.38;;;3.20;;
73938;SDS011;62291;47.554;8.504;2022-07-29T06:15:50;4.95;;;3.05;;
73938;SDS011;62291;47.554;8.504;2022-07-29T06:18:16;3.20;;;2.50;;
73938;SDS011;62291;47.554;8.504;2022-07-29T06:20:41;5.20;;;2.53;;
73938;SDS011;62291;47.554;8.504;2022-07-29T06:23:07;5.57;;;2.38;;
73938;SDS011;62291;47.554;8.504;2022-07-29T06:25:34;2.95;;;1.80;;
73938;SDS011;62291;47.554;8.504;2022-07-29T06:28:01;3.13;;;1.40;;
73938;SDS011;62291;47.554;8.504;2022-07-29T06:30:27;2.35;;;1.63;;
73938;SDS011;62291;47.554;8.504;2022-07-29T06:32:56;2.28;;;1.70;;
73938;SDS011;62291;47.554;8.504;2022-07-29T06:35:21;3.15;;;1.73;;
73938;SDS011;62291;47.554;8.504;2022-07-29T06:37:47;3.20;;;1.60;;
73938;SDS011;62291;47.554;8.504;2022-07-29T06:40:13;3.05;;;1.75;;
73938;SDS011;62291;47.554;8.504;2022-07-29T06:42:57;5.05;;;1.90;;
73938;SDS011;62291;47.554;8.504;2022-07-29T06:45:23;2.20;;;1.73;;
73938;SDS011;62291;47.554;8.504;2022-07-29T06:47:49;2.55;;;1.80;;
73938;SDS011;62291;47.554;8.504;2022-07-29T06:50:15;4.20;;;1.95;;
73938;SDS011;62291;47.554;8.504;2022-07-29T06:52:40;3.58;;;2.30;;
73938;SDS011;62291;47.554;8.504;2022-07-29T06:55:06;3.03;;;2.20;;
73938;SDS011;62291;47.554;8.504;2022-07-29T06:57:33;3.92;;;2.50;;
73938;SDS011;62291;47.554;8.504;2022-07-29T06:59:58;4.05;;;2.53;;
73938;SDS011;62291;47.554;8.504;2022-07-29T07:02:25;3.88;;;2.50;;
73938;SDS011;62291;47.554;8.504;2022-07-29T07:04:51;5.65;;;2.83;;
73938;SDS011;62291;47.554;8.504;2022-07-29T07:07:17;6.27;;;2.63;;
73938;SDS011;62291;47.554;8.504;2022-07-29T07:09:43;5.13;;;2.35;;
73938;SDS011;62291;47.554;8.504;2022-07-29T07:12:11;5.15;;;2.55;;
73938;SDS011;62291;47.554;8.504;2022-07-29T07:14:37;5.38;;;2.70;;
73938;SDS011;62291;47.554;8.504;2022-07-29T07:17:04;7.30;;;2.75;;
73938;SDS011;62291;47.554;8.504;2022-07-29T07:19:31;9.93;;;2.60;;
73938;SDS011;62291;47.554;8.504;2022-07-29T07:21:57;3.78;;;2.20;;
73938;SDS011;62291;47.554;8.504;2022-07-29T07:24:23;5.00;;;2.17;;
73938;SDS011;62291;47.554;8.504;2022-07-29T07:26:48;2.90;;;1.98;;
73938;SDS011;62291;47.554;8.504;2022-07-29T07:29:14;5.95;;;2.38;;
73938;SDS011;62291;47.554;8.504;2022-07-29T07:31:40;6.13;;;2.10;;
73938;SDS011;62291;47.554;8.504;2022-07-29T07:34:06;4.13;;;2.05;;
73938;SDS011;62291;47.554;8.504;2022-07-29T07:36:31;6.20;;;2.35;;
73938;SDS011;62291;47.554;8.504;2022-07-29T07:38:57;4.43;;;2.10;;
73938;SDS011;62291;47.554;8.504;2022-07-29T07:41:23;3.72;;;2.38;;
73938;SDS011;62291;47.554;8.504;2022-07-29T07:43:48;2.40;;;1.98;;
73938;SDS011;62291;47.554;8.504;2022-07-29T07:46:14;4.45;;;1.98;;
73938;SDS011;62291;47.554;8.504;2022-07-29T07:48:40;4.22;;;2.00;;
73938;SDS011;62291;47.554;8.504;2022-07-29T07:51:06;2.95;;;2.30;;
73938;SDS011;62291;47.554;8.504;2022-07-29T07:53:32;4.60;;;2.20;;
73938;SDS011;62291;47.554;8.504;2022-07-29T07:55:58;5.38;;;2.38;;
73938;SDS011;62291;47.554;8.504;2022-07-29T07:58:24;3.17;;;1.85;;
73938;SDS011;62291;47.554;8.504;2022-07-29T08:00:49;4.03;;;2.08;;
73938;SDS011;62291;47.554;8.504;2022-07-29T08:03:15;2.53;;;2.10;;
73938;SDS011;62291;47.554;8.504;2022-07-29T08:05:41;3.75;;;2.50;;
73938;SDS011;62291;47.554;8.504;2022-07-29T08:08:06;3.88;;;2.50;;
73938;SDS011;62291;47.554;8.504;2022-07-29T08:10:33;3.20;;;2.28;;
73938;SDS011;62291;47.554;8.504;2022-07-29T08:13:17;6.72;;;2.75;;
73938;SDS011;62291;47.554;8.504;2022-07-29T08:15:44;3.63;;;2.30;;
73938;SDS011;62291;47.554;8.504;2022-07-29T08:18:11;4.53;;;2.38;;
73938;SDS011;62291;47.554;8.504;2022-07-29T08:20:37;2.50;;;2.30;;
73938;SDS011;62291;47.554;8.504;2022-07-29T08:23:04;4.40;;;2.50;;
73938;SDS011;62291;47.554;8.504;2022-07-29T08:25:33;4.70;;;2.47;;
73938;SDS011;62291;47.554;8.504;2022-07-29T08:28:03;2.87;;;2.23;;
73938;SDS011;62291;47.554;8.504;2022-07-29T08:30:30;3.33;;;2.67;;
73938;SDS011;62291;47.554;8.504;2022-07-29T08:32:57;5.50;;;2.55;;
73938;SDS011;62291;47.554;8.504;2022-07-29T08:35:23;2.53;;;2.20;;
73938;SDS011;62291;47.554;8.504;2022-07-29T08:37:49;6.88;;;2.72;;
73938;SDS011;62291;47.554;8.504;2022-07-29T08:40:16;4.05;;;2.47;;
73938;SDS011;62291;47.554;8.504;2022-07-29T08:42:42;4.75;;;2.58;;
73938;SDS011;62291;47.554;8.504;2022-07-29T08:45:08;4.57;;;2.60;;
73938;SDS011;62291;47.554;8.504;2022-07-29T08:47:34;3.97;;;2.58;;
73938;SDS011;62291;47.554;8.504;2022-07-29T08:50:04;3.10;;;2.37;;
73938;SDS011;62291;47.554;8.504;2022-07-29T08:52:31;3.10;;;2.58;;
73938;SDS011;62291;47.554;8.504;2022-07-29T08:55:01;3.58;;;2.50;;
73938;SDS011;62291;47.554;8.504;2022-07-29T08:57:27;4.00;;;3.00;;
73938;SDS011;62291;47.554;8.504;2022-07-29T08:59:53;3.80;;;2.95;;
73938;SDS011;62291;47.554;8.504;2022-07-29T09:02:20;6.40;;;2.83;;
73938;SDS011;62291;47.554;8.504;2022-07-29T09:04:47;4.85;;;3.13;;
73938;SDS011;62291;47.554;8.504;2022-07-29T09:07:17;6.70;;;3.10;;
73938;SDS011;62291;47.554;8.504;2022-07-29T09:09:44;5.60;;;3.33;;
73938;SDS011;62291;47.554;8.504;2022-07-29T09:12:12;6.00;;;3.47;;
73938;SDS011;62291;47.554;8.504;2022-07-29T09:14:39;5.75;;;3.30;;
73938;SDS011;62291;47.554;8.504;2022-07-29T09:17:05;3.92;;;3.40;;
73938;SDS011;62291;47.554;8.504;2022-07-29T09:19:32;5.13;;;3.65;;
73938;SDS011;62291;47.554;8.504;2022-07-29T09:22:01;4.15;;;3.70;;
73938;SDS011;62291;47.554;8.504;2022-07-29T09:26:59;4.07;;;3.67;;
73938;SDS011;62291;47.554;8.504;2022-07-29T09:29:26;4.47;;;2.92;;
73938;SDS011;62291;47.554;8.504;2022-07-29T09:31:53;4.25;;;3.28;;
73938;SDS011;62291;47.554;8.504;2022-07-29T09:34:23;5.07;;;3.28;;
73938;SDS011;62291;47.554;8.504;2022-07-29T09:36:51;4.13;;;3.45;;
73938;SDS011;62291;47.554;8.504;2022-07-29T09:39:28;5.95;;;3.67;;
73938;SDS011;62291;47.554;8.504;2022-07-29T09:41:55;4.90;;;3.33;;
73938;SDS011;62291;47.554;8.504;2022-07-29T09:44:23;4.68;;;3.90;;
73938;SDS011;62291;47.554;8.504;2022-07-29T09:46:56;5.13;;;3.28;;
73938;SDS011;62291;47.554;8.504;2022-07-29T09:49:33;3.78;;;3.47;;
73938;SDS011;62291;47.554;8.504;2022-07-29T09:52:04;6.15;;;3.90;;
73938;SDS011;62291;47.554;8.504;2022-07-29T09:54:30;4.57;;;4.13;;
73938;SDS011;62291;47.554;8.504;2022-07-29T09:57:01;7.30;;;3.63;;
73938;SDS011;62291;47.554;8.504;2022-07-29T09:59:29;5.22;;;3.88;;
73938;SDS011;62291;47.554;8.504;2022-07-29T10:01:55;6.57;;;3.63;;
73938;SDS011;62291;47.554;8.504;2022-07-29T10:04:21;4.75;;;4.07;;
73938;SDS011;62291;47.554;8.504;2022-07-29T10:06:57;5.80;;;4.20;;
73938;SDS011;62291;47.554;8.504;2022-07-29T10:09:27;4.88;;;3.97;;
73938;SDS011;62291;47.554;8.504;2022-07-29T10:12:12;6.25;;;4.50;;
73938;SDS011;62291;47.554;8.504;2022-07-29T10:14:41;3.95;;;3.53;;
73938;SDS011;62291;47.554;8.504;2022-07-29T10:17:10;5.20;;;3.83;;
73938;SDS011;62291;47.554;8.504;2022-07-29T10:19:37;5.25;;;3.88;;
73938;SDS011;62291;47.554;8.504;2022-07-29T10:22:05;5.20;;;3.85;;
73938;SDS011;62291;47.554;8.504;2022-07-29T10:24:32;5.95;;;3.88;;
73938;SDS011;62291;47.554;8.504;2022-07-29T10:27:00;4.75;;;3.70;;
73938;SDS011;62291;47.554;8.504;2022-07-29T10:29:28;5.10;;;3.60;;
73938;SDS011;62291;47.554;8.504;2022-07-29T10:34:54;4.25;;;3.00;;
73938;SDS011;62291;47.554;8.504;2022-07-29T10:42:57;3.95;;;3.30;;
73938;SDS011;62291;47.554;8.504;2022-07-29T10:45:31;5.47;;;3.20;;
73938;SDS011;62291;47.554;8.504;2022-07-29T10:48:04;4.10;;;2.97;;
73938;SDS011;62291;47.554;8.504;2022-07-29T10:50:54;3.10;;;2.80;;
73938;SDS011;62291;47.554;8.504;2022-07-29T10:53:21;3.85;;;3.00;;
73938;SDS011;62291;47.554;8.504;2022-07-29T10:55:47;6.32;;;2.97;;
73938;SDS011;62291;47.554;8.504;2022-07-29T11:00:46;5.50;;;3.00;;
73938;SDS011;62291;47.554;8.504;2022-07-29T11:06:11;4.22;;;3.10;;
73938;SDS011;62291;47.554;8.504;2022-07-29T11:08:37;3.25;;;2.95;;
73938;SDS011;62291;47.554;8.504;2022-07-29T11:13:44;3.50;;;3.20;;
73938;SDS011;62291;47.554;8.504;2022-07-29T11:16:11;5.25;;;3.45;;
73938;SDS011;62291;47.554;8.504;2022-07-29T11:21:42;8.80;;;2.95;;
73938;SDS011;62291;47.554;8.504;2022-07-29T11:24:12;3.20;;;2.88;;
73938;SDS011;62291;47.554;8.504;2022-07-29T11:26:39;5.70;;;3.25;;
73938;SDS011;62291;47.554;8.504;2022-07-29T11:31:46;4.43;;;2.95;;
73938;SDS011;62291;47.554;8.504;2022-07-29T11:39:32;4.68;;;2.90;;
73938;SDS011;62291;47.554;8.504;2022-07-29T11:45:02;4.30;;;3.13;;
73938;SDS011;62291;47.554;8.504;2022-07-29T11:47:36;4.57;;;3.30;;
73938;SDS011;62291;47.554;8.504;2022-07-29T11:50:03;3.60;;;2.65;;
73938;SDS011;62291;47.554;8.504;2022-07-29T11:52:40;7.28;;;2.85;;
73938;SDS011;62291;47.554;8.504;2022-07-29T11:55:08;3.60;;;2.67;;
73938;SDS011;62291;47.554;8.504;2022-07-29T11:57:37;3.55;;;3.10;;
73938;SDS011;62291;47.554;8.504;2022-07-29T12:00:10;5.57;;;2.78;;
73938;SDS011;62291;47.554;8.504;2022-07-29T12:02:41;3.88;;;2.63;;
73938;SDS011;62291;47.554;8.504;2022-07-29T12:07:36;9.35;;;3.47;;
73938;SDS011;62291;47.554;8.504;2022-07-29T12:10:03;2.92;;;2.55;;
73938;SDS011;62291;47.554;8.504;2022-07-29T12:12:30;3.80;;;2.78;;
73938;SDS011;62291;47.554;8.504;2022-07-29T12:14:56;9.95;;;3.08;;
73938;SDS011;62291;47.554;8.504;2022-07-29T12:17:25;5.70;;;2.58;;
73938;SDS011;62291;47.554;8.504;2022-07-29T12:19:52;2.97;;;2.43;;
73938;SDS011;62291;47.554;8.504;2022-07-29T12:22:25;4.60;;;2.63;;
73938;SDS011;62291;47.554;8.504;2022-07-29T12:24:52;3.75;;;2.50;;
73938;SDS011;62291;47.554;8.504;2022-07-29T12:27:18;3.90;;;2.28;;
73938;SDS011;62291;47.554;8.504;2022-07-29T12:29:45;3.70;;;2.40;;
73938;SDS011;62291;47.554;8.504;2022-07-29T12:32:20;4.30;;;2.30;;
73938;SDS011;62291;47.554;8.504;2022-07-29T12:34:45;3.78;;;2.50;;
73938;SDS011;62291;47.554;8.504;2022-07-29T12:37:11;5.30;;;2.42;;
73938;SDS011;62291;47.554;8.504;2022-07-29T12:39:37;2.67;;;2.03;;
73938;SDS011;62291;47.554;8.504;2022-07-29T12:42:13;4.43;;;1.65;;
73938;SDS011;62291;47.554;8.504;2022-07-29T12:44:46;4.43;;;2.05;;
73938;SDS011;62291;47.554;8.504;2022-07-29T12:47:14;6.22;;;2.42;;
73938;SDS011;62291;47.554;8.504;2022-07-29T12:49:41;4.80;;;2.55;;
73938;SDS011;62291;47.554;8.504;2022-07-29T12:54:52;6.55;;;2.60;;
73938;SDS011;62291;47.554;8.504;2022-07-29T12:57:18;5.32;;;1.95;;
73938;SDS011;62291;47.554;8.504;2022-07-29T12:59:44;4.45;;;2.35;;
73938;SDS011;62291;47.554;8.504;2022-07-29T13:02:22;5.28;;;1.83;;
73938;SDS011;62291;47.554;8.504;2022-07-29T13:04:55;3.47;;;1.83;;
73938;SDS011;62291;47.554;8.504;2022-07-29T13:07:26;3.90;;;1.75;;
73938;SDS011;62291;47.554;8.504;2022-07-29T13:09:54;4.30;;;1.88;;
73938;SDS011;62291;47.554;8.504;2022-07-29T13:15:39;5.13;;;2.05;;
73938;SDS011;62291;47.554;8.504;2022-07-29T13:18:27;3.83;;;2.00;;
73938;SDS011;62291;47.554;8.504;2022-07-29T13:21:13;3.67;;;2.20;;
73938;SDS011;62291;47.554;8.504;2022-07-29T13:23:40;6.95;;;2.47;;
73938;SDS011;62291;47.554;8.504;2022-07-29T13:26:07;3.95;;;2.45;;
73938;SDS011;62291;47.554;8.504;2022-07-29T13:28:35;3.70;;;2.35;;
73938;SDS011;62291;47.554;8.504;2022-07-29T13:31:01;5.32;;;2.45;;
73938;SDS011;62291;47.554;8.504;2022-07-29T13:33:26;3.63;;;2.60;;
73938;SDS011;62291;47.554;8.504;2022-07-29T13:35:52;3.92;;;2.88;;
73938;SDS011;62291;47.554;8.504;2022-07-29T13:38:18;4.78;;;2.78;;
73938;SDS011;62291;47.554;8.504;2022-07-29T13:40:44;3.42;;;2.58;;
73938;SDS011;62291;47.554;8.504;2022-07-29T13:43:10;6.55;;;2.88;;
73938;SDS011;62291;47.554;8.504;2022-07-29T13:45:36;5.15;;;2.80;;
73938;SDS011;62291;47.554;8.504;2022-07-29T13:48:02;5.43;;;2.75;;
73938;SDS011;62291;47.554;8.504;2022-07-29T13:50:28;4.82;;;2.63;;
73938;SDS011;62291;47.554;8.504;2022-07-29T13:52:54;4.32;;;2.53;;
73938;SDS011;62291;47.554;8.504;2022-07-29T13:55:20;4.22;;;2.67;;
73938;SDS011;62291;47.554;8.504;2022-07-29T13:57:46;5.88;;;2.50;;
73938;SDS011;62291;47.554;8.504;2022-07-29T14:00:12;4.55;;;3.22;;
73938;SDS011;62291;47.554;8.504;2022-07-29T14:02:39;6.18;;;2.70;;
73938;SDS011;62291;47.554;8.504;2022-07-29T14:05:06;5.00;;;2.40;;
73938;SDS011;62291;47.554;8.504;2022-07-29T14:07:31;3.85;;;2.80;;
73938;SDS011;62291;47.554;8.504;2022-07-29T14:09:57;5.53;;;2.97;;
73938;SDS011;62291;47.554;8.504;2022-07-29T14:12:23;9.10;;;2.65;;
73938;SDS011;62291;47.554;8.504;2022-07-29T14:14:49;5.28;;;2.75;;
73938;SDS011;62291;47.554;8.504;2022-07-29T14:17:15;6.15;;;2.70;;
73938;SDS011;62291;47.554;8.504;2022-07-29T14:19:40;6.93;;;2.95;;
73938;SDS011;62291;47.554;8.504;2022-07-29T14:22:07;7.35;;;2.75;;
73938;SDS011;62291;47.554;8.504;2022-07-29T14:24:33;5.70;;;3.00;;
73938;SDS011;62291;47.554;8.504;2022-07-29T14:27:00;7.68;;;5.45;;
73938;SDS011;62291;47.554;8.504;2022-07-29T14:29:26;8.20;;;3.47;;
73938;SDS011;62291;47.554;8.504;2022-07-29T14:31:52;4.75;;;3.28;;
73938;SDS011;62291;47.554;8.504;2022-07-29T14:34:17;6.20;;;4.32;;
73938;SDS011;62291;47.554;8.504;2022-07-29T14:36:43;7.03;;;4.47;;
73938;SDS011;62291;47.554;8.504;2022-07-29T14:39:09;7.68;;;4.00;;
73938;SDS011;62291;47.554;8.504;2022-07-29T14:41:35;7.63;;;4.13;;
73938;SDS011;62291;47.554;8.504;2022-07-29T14:44:00;5.13;;;4.18;;
73938;SDS011;62291;47.554;8.504;2022-07-29T14:46:26;7.70;;;4.47;;
73938;SDS011;62291;47.554;8.504;2022-07-29T14:48:53;9.30;;;4.57;;
73938;SDS011;62291;47.554;8.504;2022-07-29T14:51:18;8.20;;;4.85;;
73938;SDS011;62291;47.554;8.504;2022-07-29T14:53:44;7.38;;;4.78;;
73938;SDS011;62291;47.554;8.504;2022-07-29T14:56:10;8.88;;;5.20;;
73938;SDS011;62291;47.554;8.504;2022-07-29T14:58:35;7.30;;;5.18;;
73938;SDS011;62291;47.554;8.504;2022-07-29T15:01:01;5.32;;;4.45;;
73938;SDS011;62291;47.554;8.504;2022-07-29T15:03:27;8.57;;;5.20;;
73938;SDS011;62291;47.554;8.504;2022-07-29T15:05:53;6.57;;;5.28;;
73938;SDS011;62291;47.554;8.504;2022-07-29T15:08:19;7.70;;;5.18;;
73938;SDS011;62291;47.554;8.504;2022-07-29T15:10:45;5.63;;;4.72;;
73938;SDS011;62291;47.554;8.504;2022-07-29T15:13:11;6.65;;;4.85;;
73938;SDS011;62291;47.554;8.504;2022-07-29T15:15:37;7.18;;;5.63;;
73938;SDS011;62291;47.554;8.504;2022-07-29T15:18:03;7.70;;;5.18;;
73938;SDS011;62291;47.554;8.504;2022-07-29T15:20:29;6.20;;;5.60;;
73938;SDS011;62291;47.554;8.504;2022-07-29T15:22:55;7.00;;;5.55;;
73938;SDS011;62291;47.554;8.504;2022-07-29T15:25:22;7.00;;;5.85;;
73938;SDS011;62291;47.554;8.504;2022-07-29T15:27:48;5.82;;;5.20;;
73938;SDS011;62291;47.554;8.504;2022-07-29T15:30:14;4.95;;;4.43;;
73938;SDS011;62291;47.554;8.504;2022-07-29T15:32:43;5.03;;;4.20;;
73938;SDS011;62291;47.554;8.504;2022-07-29T15:35:09;5.72;;;3.67;;
73938;SDS011;62291;47.554;8.504;2022-07-29T15:37:35;7.30;;;3.70;;
73938;SDS011;62291;47.554;8.504;2022-07-29T15:40:03;5.35;;;3.85;;
73938;SDS011;62291;47.554;8.504;2022-07-29T15:42:29;4.85;;;3.90;;
73938;SDS011;62291;47.554;8.504;2022-07-29T15:44:55;8.50;;;3.85;;
73938;SDS011;62291;47.554;8.504;2022-07-29T15:47:21;6.82;;;4.28;;
73938;SDS011;62291;47.554;8.504;2022-07-29T15:49:47;5.00;;;3.80;;